createdAt,value
2022-12-07T00:01:31.157Z,22.20
2022-12-07T00:04:05.880Z,24.07
2022-12-07T00:06:34.799Z,22.97
2022-12-07T00:09:03.155Z,21.27
2022-12-07T00:11:32.730Z,21.03
2022-12-07T00:14:03.262Z,20.43
2022-12-07T00:16:33.699Z,19.47
2022-12-07T00:19:02.052Z,19.27
2022-12-07T00:21:32.296Z,19.50
2022-12-07T00:24:01.729Z,20.67
2022-12-07T00:26:32.005Z,21.07
2022-12-07T00:29:02.963Z,19.40
2022-12-07T00:31:34.392Z,21.20
2022-12-07T00:34:03.344Z,21.00
2022-12-07T00:36:31.436Z,19.57
2022-12-07T00:39:02.079Z,20.13
2022-12-07T00:41:30.762Z,17.87
2022-12-07T00:43:59.245Z,17.97
2022-12-07T00:46:29.147Z,18.60
2022-12-07T00:48:57.305Z,19.13
2022-12-07T00:51:27.264Z,17.60
2022-12-07T00:53:55.563Z,18.03
2022-12-07T00:56:26.226Z,16.33
2022-12-07T00:58:56.721Z,15.63
2022-12-07T01:01:25.152Z,15.33
2022-12-07T01:03:54.626Z,14.03
2022-12-07T01:06:24.633Z,13.57
2022-12-07T01:08:53.662Z,12.93
2022-12-07T01:11:24.075Z,13.63
2022-12-07T01:13:52.976Z,13.67
2022-12-07T01:16:22.276Z,14.13
2022-12-07T01:18:52.489Z,13.90
2022-12-07T01:21:23.910Z,16.03
2022-12-07T01:23:52.559Z,17.33
2022-12-07T01:26:22.394Z,17.53
2022-12-07T01:28:50.523Z,17.83
2022-12-07T01:31:20.497Z,17.93
2022-12-07T01:33:49.893Z,17.70
2022-12-07T01:36:22.811Z,17.47
2022-12-07T01:38:53.702Z,17.87
2022-12-07T01:41:23.448Z,17.50
2022-12-07T01:44:19.911Z,17.37
2022-12-07T01:46:49.645Z,17.07
2022-12-07T01:49:34.360Z,16.50
2022-12-07T01:52:18.163Z,17.77
2022-12-07T01:54:48.316Z,18.30
2022-12-07T01:57:18.252Z,17.67
2022-12-07T01:59:47.901Z,18.00
2022-12-07T02:02:22.410Z,17.17
2022-12-07T02:04:53.142Z,16.73
2022-12-07T02:07:23.325Z,15.57
2022-12-07T02:09:51.345Z,16.27
2022-12-07T02:12:19.818Z,16.10
2022-12-07T02:14:48.245Z,16.03
2022-12-07T02:17:26.185Z,16.63
2022-12-07T02:20:25.599Z,16.40
2022-12-07T02:23:31.588Z,16.20
2022-12-07T02:26:26.202Z,16.43
2022-12-07T02:29:12.688Z,16.93
2022-12-07T02:31:47.927Z,17.83
2022-12-07T02:34:24.136Z,17.93
2022-12-07T02:36:57.975Z,17.30
2022-12-07T02:39:33.531Z,17.37
2022-12-07T02:42:09.890Z,16.97
2022-12-07T02:44:39.605Z,16.53
2022-12-07T02:47:11.792Z,15.90
2022-12-07T02:49:41.312Z,15.60
2022-12-07T02:52:09.306Z,16.83
2022-12-07T02:54:37.709Z,17.17
2022-12-07T02:57:18.408Z,15.13
2022-12-07T03:00:02.254Z,15.43
2022-12-07T03:02:38.540Z,14.50
2022-12-07T03:05:23.758Z,15.50
2022-12-07T03:08:03.112Z,16.07
2022-12-07T03:10:40.653Z,15.90
2022-12-07T03:13:14.592Z,16.70
2022-12-07T03:15:49.711Z,15.77
2022-12-07T03:18:22.803Z,15.20
2022-12-07T03:20:55.607Z,15.80
2022-12-07T03:23:27.512Z,15.03
2022-12-07T03:26:01.899Z,16.10
2022-12-07T03:28:35.762Z,18.13
2022-12-07T03:31:12.823Z,16.03
2022-12-07T03:33:46.474Z,15.50
2022-12-07T03:36:19.553Z,16.17
2022-12-07T03:38:52.741Z,14.77
2022-12-07T03:41:25.023Z,13.67
2022-12-07T03:43:54.022Z,14.63
2022-12-07T03:46:35.046Z,12.50
2022-12-07T03:49:10.243Z,15.57
2022-12-07T03:51:43.099Z,13.17
2022-12-07T03:54:15.773Z,13.17
2022-12-07T03:56:46.687Z,11.90
2022-12-07T03:59:16.518Z,13.43
2022-12-07T04:01:47.375Z,11.53
2022-12-07T04:04:15.478Z,11.17
2022-12-07T04:06:43.809Z,9.93
2022-12-07T04:09:11.996Z,10.37
2022-12-07T04:11:40.180Z,10.17
2022-12-07T04:14:23.085Z,12.83
2022-12-07T04:16:54.266Z,11.50
2022-12-07T04:19:25.165Z,10.50
2022-12-07T04:21:53.176Z,9.83
2022-12-07T04:24:22.068Z,10.10
2022-12-07T04:26:50.545Z,9.83
2022-12-07T04:29:19.585Z,10.47
2022-12-07T04:31:47.945Z,10.00
2022-12-07T04:34:18.771Z,10.07
2022-12-07T04:36:47.541Z,9.13
2022-12-07T04:39:23.357Z,8.77
2022-12-07T04:41:52.131Z,9.50
2022-12-07T04:44:21.188Z,9.23
2022-12-07T04:46:49.802Z,9.47
2022-12-07T04:49:20.866Z,8.17
2022-12-07T04:51:49.630Z,8.80
2022-12-07T04:54:18.477Z,8.50
2022-12-07T04:56:46.773Z,8.43
2022-12-07T04:59:15.629Z,8.40
2022-12-07T05:01:43.995Z,9.53
2022-12-07T05:04:12.228Z,8.50
2022-12-07T05:06:41.816Z,8.80
2022-12-07T05:09:10.325Z,9.60
2022-12-07T05:11:41.473Z,9.27
2022-12-07T05:14:14.475Z,11.87
2022-12-07T05:16:43.773Z,10.83
2022-12-07T05:19:12.707Z,9.10
2022-12-07T05:21:42.387Z,9.53
2022-12-07T05:24:13.863Z,9.57
2022-12-07T05:26:42.185Z,8.43
2022-12-07T05:29:12.777Z,9.93
2022-12-07T05:31:40.877Z,10.03
2022-12-07T05:34:09.172Z,9.10
2022-12-07T05:36:38.279Z,10.00
2022-12-07T05:39:08.278Z,10.70
2022-12-07T05:41:54.191Z,9.60
2022-12-07T05:44:22.399Z,9.73
2022-12-07T05:46:50.554Z,9.70
2022-12-07T05:49:18.863Z,8.40
2022-12-07T05:51:46.946Z,8.40
2022-12-07T05:54:16.259Z,11.73
2022-12-07T05:56:44.292Z,9.97
2022-12-07T05:59:24.931Z,9.30
2022-12-07T06:01:53.773Z,8.80
2022-12-07T06:04:22.792Z,7.90
2022-12-07T06:06:51.559Z,8.40
2022-12-07T06:09:21.832Z,8.03
2022-12-07T06:12:07.405Z,7.83
2022-12-07T06:14:36.069Z,8.03
2022-12-07T06:17:04.622Z,8.27
2022-12-07T06:19:32.694Z,7.80
2022-12-07T06:22:01.020Z,7.60
2022-12-07T06:26:59.254Z,8.27
2022-12-07T06:29:27.435Z,8.90
2022-12-07T06:31:55.487Z,8.40
2022-12-07T06:34:25.225Z,8.40
2022-12-07T06:36:56.013Z,8.93
2022-12-07T06:39:26.303Z,8.93
2022-12-07T06:41:55.971Z,8.37
2022-12-07T06:44:24.511Z,8.23
2022-12-07T06:47:06.774Z,7.77
2022-12-07T06:49:40.718Z,8.97
2022-12-07T06:52:08.924Z,8.83
2022-12-07T06:54:37.061Z,7.73
2022-12-07T06:57:06.465Z,8.37
2022-12-07T06:59:34.399Z,7.93
2022-12-07T07:02:02.688Z,9.20
2022-12-07T07:04:30.812Z,8.67
2022-12-07T07:07:00.379Z,8.60
2022-12-07T07:09:28.785Z,10.03
2022-12-07T07:11:56.951Z,8.00
2022-12-07T07:14:26.397Z,26.97
2022-12-07T07:16:54.607Z,25.83
2022-12-07T07:19:23.125Z,39.10
2022-12-07T07:21:51.114Z,49.27
2022-12-07T07:24:19.091Z,112.67
2022-12-07T07:26:47.039Z,42.23
2022-12-07T07:29:15.122Z,20.00
2022-12-07T07:31:44.493Z,24.53
2022-12-07T07:34:12.629Z,16.07
2022-12-07T07:39:09.080Z,14.33
2022-12-07T07:41:37.163Z,14.87
2022-12-07T07:44:05.407Z,10.97
2022-12-07T07:46:34.350Z,12.47
2022-12-07T07:49:04.116Z,11.20
2022-12-07T07:51:32.418Z,15.07
2022-12-07T07:54:00.411Z,9.37
2022-12-07T07:56:28.736Z,11.90
2022-12-07T07:58:57.052Z,10.27
2022-12-07T08:01:25.049Z,9.43
2022-12-07T08:03:53.053Z,13.17
2022-12-07T08:06:22.496Z,10.43
2022-12-07T08:08:50.700Z,11.10
2022-12-07T08:11:18.712Z,9.20
2022-12-07T08:13:48.075Z,10.63
2022-12-07T08:16:16.548Z,10.27
2022-12-07T08:18:44.824Z,10.00
2022-12-07T08:21:15.110Z,9.07
2022-12-07T08:23:44.675Z,9.57
2022-12-07T08:26:14.552Z,10.77
2022-12-07T08:28:43.493Z,10.23
2022-12-07T08:31:14.996Z,11.90
2022-12-07T08:33:43.819Z,9.80
2022-12-07T08:36:14.158Z,10.03
2022-12-07T08:39:01.434Z,74.63
2022-12-07T08:41:33.502Z,75.00
2022-12-07T08:44:01.628Z,23.50
2022-12-07T08:46:35.660Z,11.40
2022-12-07T08:49:08.262Z,10.80
2022-12-07T08:51:36.458Z,11.57
2022-12-07T08:54:08.923Z,9.80
2022-12-07T08:56:37.587Z,10.50
2022-12-07T08:59:06.342Z,12.10
2022-12-07T09:01:34.693Z,12.17
2022-12-07T09:04:02.992Z,18.43
2022-12-07T09:06:31.504Z,18.63
2022-12-07T09:09:01.163Z,14.23
2022-12-07T09:11:30.830Z,15.13
2022-12-07T09:13:58.797Z,12.80
2022-12-07T09:16:26.920Z,10.20
2022-12-07T09:18:54.899Z,11.63
2022-12-07T09:21:22.813Z,10.37
2022-12-07T09:23:50.954Z,12.73
2022-12-07T09:26:18.934Z,18.53
2022-12-07T09:28:48.261Z,17.30
2022-12-07T09:31:25.206Z,16.03
2022-12-07T09:33:56.617Z,13.80
2022-12-07T09:36:24.831Z,12.17
2022-12-07T09:38:52.846Z,11.77
2022-12-07T09:41:21.488Z,11.83
2022-12-07T09:43:51.202Z,14.17
2022-12-07T09:46:21.759Z,11.50
2022-12-07T09:48:51.951Z,12.23
2022-12-07T09:51:25.055Z,11.17
2022-12-07T09:53:55.567Z,10.93
2022-12-07T09:56:24.870Z,11.43
2022-12-07T09:59:02.299Z,9.97
2022-12-07T10:01:33.297Z,11.43
2022-12-07T10:04:11.534Z,9.83
2022-12-07T10:06:40.040Z,10.83
2022-12-07T10:09:12.598Z,9.67
2022-12-07T10:12:03.839Z,10.30
2022-12-07T10:15:05.448Z,9.70
2022-12-07T10:17:36.610Z,9.23
2022-12-07T10:20:16.756Z,11.17
2022-12-07T10:22:57.363Z,10.23
2022-12-07T10:25:28.966Z,11.20
2022-12-07T10:28:02.342Z,10.50
2022-12-07T10:30:32.794Z,10.43
2022-12-07T10:33:00.930Z,10.13
2022-12-07T10:35:30.653Z,9.63
2022-12-07T10:38:00.658Z,9.73
2022-12-07T10:40:32.485Z,9.13
2022-12-07T10:43:19.923Z,10.67
2022-12-07T10:46:19.634Z,10.10
2022-12-07T10:48:57.132Z,8.47
2022-12-07T10:51:34.674Z,8.53
2022-12-07T10:54:16.178Z,9.93
2022-12-07T10:57:04.068Z,10.67
2022-12-07T10:59:47.928Z,9.43
2022-12-07T11:02:32.291Z,10.23
2022-12-07T11:05:10.018Z,9.50
2022-12-07T11:07:53.633Z,13.97
2022-12-07T11:10:31.863Z,19.43
2022-12-07T11:13:26.633Z,12.30
2022-12-07T11:16:18.083Z,9.10
2022-12-07T11:18:58.080Z,8.67
2022-12-07T11:21:32.282Z,7.57
2022-12-07T11:24:05.919Z,10.27
2022-12-07T11:26:48.924Z,10.50
2022-12-07T11:29:46.370Z,9.53
2022-12-07T11:32:22.542Z,10.00
2022-12-07T11:35:04.463Z,10.47
2022-12-07T11:40:19.313Z,10.50
2022-12-07T11:42:54.969Z,10.70
2022-12-07T11:45:28.878Z,11.07
2022-12-07T11:48:01.793Z,10.83
2022-12-07T11:50:35.866Z,12.20
2022-12-07T11:53:12.099Z,12.20
2022-12-07T11:55:48.319Z,11.20
2022-12-07T11:58:46.598Z,13.67
2022-12-07T12:01:28.665Z,11.57
2022-12-07T12:04:01.574Z,11.90
2022-12-07T12:06:31.047Z,11.20
2022-12-07T12:15:33.341Z,9.43
2022-12-07T12:18:33.664Z,7.03
2022-12-07T12:21:06.897Z,5.97
2022-12-07T12:23:43.455Z,6.87
2022-12-07T12:26:19.857Z,15.17
2022-12-07T12:28:56.769Z,9.47
2022-12-07T12:31:45.906Z,7.73
2022-12-07T12:34:45.412Z,7.00
2022-12-07T12:37:46.912Z,7.53
2022-12-07T12:40:53.383Z,64.00
2022-12-07T12:43:47.181Z,17.70
2022-12-07T12:46:50.757Z,14.27
2022-12-07T12:49:46.386Z,8.27
2022-12-07T12:52:53.628Z,31.07
2022-12-07T12:55:47.806Z,7.10
2022-12-07T12:58:50.262Z,7.70
2022-12-07T13:01:46.002Z,10.87
2022-12-07T13:04:27.821Z,8.47
2022-12-07T13:06:56.194Z,6.73
2022-12-07T13:09:28.132Z,9.03
2022-12-07T13:12:04.052Z,8.40
2022-12-07T13:14:56.181Z,6.70
2022-12-07T13:18:03.734Z,6.27
2022-12-07T13:20:52.458Z,6.57
2022-12-07T13:23:24.615Z,5.83
2022-12-07T13:26:01.820Z,5.10
2022-12-07T13:28:37.287Z,6.27
2022-12-07T13:31:17.969Z,4.40
2022-12-07T13:33:48.633Z,4.80
2022-12-07T13:36:22.065Z,5.60
2022-12-07T13:38:56.743Z,5.20
2022-12-07T13:41:26.584Z,5.57
2022-12-07T13:44:02.491Z,8.30
2022-12-07T13:46:42.644Z,7.93
2022-12-07T13:49:22.373Z,6.33
2022-12-07T13:51:51.342Z,9.30
2022-12-07T13:54:20.554Z,5.10
2022-12-07T13:56:52.794Z,5.13
2022-12-07T13:59:23.222Z,5.23
2022-12-07T14:01:52.557Z,7.10
2022-12-07T14:04:33.245Z,5.50
2022-12-07T14:07:02.860Z,8.20
2022-12-07T14:09:31.840Z,5.70
2022-12-07T14:12:00.881Z,5.20
2022-12-07T14:14:36.578Z,5.43
2022-12-07T14:17:17.163Z,6.77
2022-12-07T14:19:53.349Z,5.20
2022-12-07T14:22:30.925Z,5.67
2022-12-07T14:25:13.875Z,10.43
2022-12-07T14:27:51.212Z,5.07
2022-12-07T14:30:20.643Z,5.20
2022-12-07T14:32:52.401Z,5.90
2022-12-07T14:35:22.081Z,7.00
2022-12-07T14:37:51.473Z,8.00
2022-12-07T14:40:22.127Z,6.00
2022-12-07T14:42:53.687Z,8.63
2022-12-07T14:45:23.609Z,8.00
2022-12-07T14:53:39.025Z,6.50
2022-12-07T14:56:07.659Z,6.57
2022-12-07T14:58:35.733Z,7.00
2022-12-07T15:01:03.851Z,6.13
2022-12-07T15:03:35.649Z,5.57
2022-12-07T15:06:06.475Z,6.23
2022-12-07T15:08:34.701Z,6.20
2022-12-07T15:11:03.752Z,5.93
2022-12-07T15:13:49.237Z,5.97
2022-12-07T15:16:22.109Z,7.30
2022-12-07T15:19:19.197Z,6.30
2022-12-07T15:21:39.891Z,7.67
2022-12-07T15:24:08.623Z,5.87
2022-12-07T15:26:36.572Z,8.40
2022-12-07T15:29:04.823Z,5.97
2022-12-07T15:31:54.485Z,6.13
2022-12-07T15:34:20.889Z,6.53
2022-12-07T15:36:50.273Z,10.53
2022-12-07T15:39:18.222Z,6.57
2022-12-07T15:41:46.405Z,5.80
2022-12-07T15:44:32.780Z,6.07
2022-12-07T15:47:01.124Z,6.57
2022-12-07T15:49:30.143Z,6.90
2022-12-07T15:51:59.738Z,6.10
2022-12-07T15:54:29.786Z,8.27
2022-12-07T15:56:58.467Z,14.40
2022-12-07T15:59:28.629Z,7.30
2022-12-07T16:01:56.910Z,12.23
2022-12-07T16:04:25.051Z,8.60
2022-12-07T16:06:53.183Z,6.87
2022-12-07T16:09:22.852Z,8.37
2022-12-07T16:11:51.269Z,9.67
2022-12-07T16:14:19.262Z,6.87
2022-12-07T16:16:47.282Z,8.30
2022-12-07T16:19:15.533Z,9.90
2022-12-07T16:21:44.174Z,6.57
2022-12-07T16:24:13.705Z,6.70
2022-12-07T16:26:49.422Z,7.17
2022-12-07T16:29:20.016Z,7.23
2022-12-07T16:31:48.416Z,7.53
2022-12-07T16:34:16.904Z,8.23
2022-12-07T16:39:33.401Z,17.10
2022-12-07T16:42:02.893Z,21.43
2022-12-07T16:44:31.716Z,57.67
2022-12-07T16:47:00.052Z,30.47
2022-12-07T16:49:29.034Z,18.43
2022-12-07T16:52:19.311Z,15.17
2022-12-07T16:54:45.201Z,15.57
2022-12-07T16:57:21.590Z,22.30
2022-12-07T16:59:50.944Z,15.80
2022-12-07T17:02:19.028Z,27.23
2022-12-07T17:04:47.026Z,27.83
2022-12-07T17:07:15.150Z,24.70
2022-12-07T17:09:43.128Z,40.57
2022-12-07T17:12:11.269Z,36.53
2022-12-07T17:14:58.325Z,44.10
2022-12-07T17:17:26.372Z,32.00
2022-12-07T17:19:54.575Z,41.23
2022-12-07T17:22:22.624Z,32.00
2022-12-07T17:24:50.668Z,27.63
2022-12-07T17:27:18.710Z,24.93
2022-12-07T17:29:48.081Z,23.40
2022-12-07T17:32:16.852Z,49.90
2022-12-07T17:34:45.215Z,49.97
2022-12-07T17:37:13.178Z,33.00
2022-12-07T17:39:41.781Z,57.27
2022-12-07T17:42:28.306Z,46.47
2022-12-07T17:44:57.682Z,41.67
2022-12-07T17:47:25.813Z,81.43
2022-12-07T17:49:53.977Z,53.20
2022-12-07T17:52:39.769Z,36.87
2022-12-07T17:55:10.779Z,23.73
2022-12-07T17:57:38.855Z,22.50
2022-12-07T18:00:09.922Z,24.10
2022-12-07T18:02:38.083Z,26.07
2022-12-07T18:05:06.767Z,33.53
2022-12-07T18:07:34.988Z,34.80
2022-12-07T18:10:03.057Z,32.93
2022-12-07T18:12:31.367Z,46.20
2022-12-07T18:14:59.345Z,44.60
2022-12-07T18:17:28.728Z,34.33
2022-12-07T18:19:56.798Z,46.90
2022-12-07T18:22:25.250Z,57.70
2022-12-07T18:24:53.254Z,74.00
2022-12-07T18:27:21.203Z,61.30
2022-12-07T18:29:49.283Z,53.13
2022-12-07T18:32:17.390Z,55.53
2022-12-07T18:34:46.899Z,63.70
2022-12-07T18:37:14.872Z,56.80
2022-12-07T18:39:43.240Z,49.70
2022-12-07T18:42:11.328Z,44.60
2022-12-07T18:44:39.340Z,36.37
2022-12-07T18:47:09.841Z,35.27
2022-12-07T18:49:37.922Z,33.73
2022-12-07T18:52:07.504Z,38.60
2022-12-07T18:54:35.817Z,33.93
2022-12-07T18:57:03.955Z,32.53
2022-12-07T18:59:50.206Z,43.03
2022-12-07T19:02:19.146Z,41.73
2022-12-07T19:04:47.428Z,42.63
2022-12-07T19:07:17.401Z,42.43
2022-12-07T19:09:45.769Z,37.23
2022-12-07T19:12:15.208Z,39.33
2022-12-07T19:14:43.313Z,34.40
2022-12-07T19:17:13.566Z,34.80
2022-12-07T19:19:44.093Z,34.17
2022-12-07T19:22:13.781Z,32.67
2022-12-07T19:24:46.484Z,29.43
2022-12-07T19:27:15.573Z,29.70
2022-12-07T19:29:44.274Z,27.97
2022-12-07T19:32:12.975Z,28.17
2022-12-07T19:34:43.227Z,25.53
2022-12-07T19:37:12.583Z,26.13
2022-12-07T19:39:41.759Z,26.07
2022-12-07T19:42:11.847Z,28.97
2022-12-07T19:44:40.115Z,31.77
2022-12-07T19:47:08.228Z,34.33
2022-12-07T19:49:37.398Z,36.80
2022-12-07T19:52:08.682Z,37.33
2022-12-07T19:54:37.474Z,33.60
2022-12-07T19:57:07.275Z,34.40
2022-12-07T19:59:36.900Z,35.37
2022-12-07T20:02:04.953Z,35.57
2022-12-07T20:04:35.773Z,35.43
2022-12-07T20:07:04.111Z,33.07
2022-12-07T20:09:32.439Z,36.07
2022-12-07T20:12:17.807Z,35.33
2022-12-07T20:14:47.396Z,37.53
2022-12-07T20:17:15.641Z,39.83
2022-12-07T20:19:43.722Z,37.77
2022-12-07T20:22:11.902Z,38.60
2022-12-07T20:24:39.996Z,35.67
2022-12-07T20:27:08.396Z,38.63
2022-12-07T20:29:36.483Z,39.40
2022-12-07T20:32:06.536Z,46.40
2022-12-07T20:34:34.539Z,41.10
2022-12-07T20:37:02.663Z,46.13
2022-12-07T20:39:30.912Z,49.07
2022-12-07T20:42:16.016Z,43.77
2022-12-07T20:44:44.204Z,45.53
2022-12-07T20:47:13.689Z,51.07
2022-12-07T20:49:41.705Z,54.60
2022-12-07T20:52:09.730Z,46.87
2022-12-07T20:54:37.858Z,44.87
2022-12-07T20:57:05.832Z,41.70
2022-12-07T20:59:38.097Z,39.67
2022-12-07T21:02:13.677Z,38.83
2022-12-07T21:04:42.076Z,39.93
2022-12-07T21:07:10.206Z,41.03
2022-12-07T21:09:38.393Z,34.67
2022-12-07T21:12:11.077Z,34.93
2022-12-07T21:14:40.944Z,32.43
2022-12-07T21:17:08.950Z,29.63
2022-12-07T21:19:38.969Z,31.43
2022-12-07T21:22:07.100Z,36.03
2022-12-07T21:24:35.280Z,36.63
2022-12-07T21:27:03.429Z,34.40
2022-12-07T21:29:43.280Z,35.23
2022-12-07T21:32:13.466Z,29.87
2022-12-07T21:34:42.996Z,29.50
2022-12-07T21:37:11.348Z,28.80
2022-12-07T21:39:39.330Z,26.97
2022-12-07T21:42:07.417Z,25.23
2022-12-07T21:44:35.734Z,23.83
2022-12-07T21:47:04.226Z,25.93
2022-12-07T21:49:35.496Z,26.17
2022-12-07T21:52:05.321Z,27.30
2022-12-07T21:54:34.132Z,29.13
2022-12-07T21:57:02.117Z,28.57
2022-12-07T21:59:30.321Z,26.47
2022-12-07T22:01:58.439Z,26.10
2022-12-07T22:04:27.683Z,25.53
2022-12-07T22:07:14.424Z,25.30
2022-12-07T22:09:44.019Z,22.53
2022-12-07T22:12:12.191Z,22.70
2022-12-07T22:14:57.333Z,22.03
2022-12-07T22:17:25.295Z,25.20
2022-12-07T22:19:53.454Z,31.33
2022-12-07T22:22:21.491Z,30.57
2022-12-07T22:24:51.426Z,27.97
2022-12-07T22:27:19.575Z,24.83
2022-12-07T22:29:47.763Z,26.93
2022-12-07T22:32:46.659Z,26.30
2022-12-07T22:35:05.198Z,24.80
2022-12-07T22:37:34.291Z,24.30
2022-12-07T22:40:03.771Z,25.13
2022-12-07T22:42:32.010Z,25.57
2022-12-07T22:45:00.131Z,27.83
2022-12-07T22:47:29.754Z,27.90
2022-12-07T22:49:57.738Z,30.13
2022-12-07T22:52:25.783Z,31.03
2022-12-07T22:54:53.728Z,31.40
2022-12-07T22:57:23.182Z,36.13
2022-12-07T22:59:51.317Z,33.53
2022-12-07T23:02:19.777Z,36.03
2022-12-07T23:04:47.733Z,34.27
2022-12-07T23:07:15.940Z,34.80
2022-12-07T23:09:44.048Z,34.80
2022-12-07T23:12:29.539Z,39.53
2022-12-07T23:14:59.052Z,39.93
2022-12-07T23:17:27.025Z,41.53
2022-12-07T23:19:56.316Z,40.17
2022-12-07T23:22:24.673Z,39.13
2022-12-07T23:24:52.869Z,39.70
2022-12-07T23:27:20.832Z,40.13
2022-12-07T23:29:48.852Z,40.03
2022-12-07T23:32:18.343Z,40.40
2022-12-07T23:34:46.304Z,38.40
2022-12-07T23:37:14.286Z,39.23
2022-12-07T23:39:42.519Z,37.53
2022-12-07T23:42:10.562Z,37.97
2022-12-07T23:44:38.496Z,36.57
2022-12-07T23:47:06.674Z,37.00
2022-12-07T23:49:36.235Z,38.00
2022-12-07T23:52:04.552Z,37.43
2022-12-07T23:54:32.663Z,34.00
2022-12-07T23:57:00.635Z,33.93
2022-12-07T23:59:28.706Z,32.37
